Time;durP1;ratioP1;P1;durP2;ratioP2;P2;SDS_P1;SDS_P2;PMS_P1;PMS_P2;Temp;Humidity;BMP_temperature;BMP_pressure;BME280_temperature;BME280_humidity;BME280_pressure;Samples;Min_cycle;Max_cycle;Signal;HPM_P1;HPM_P2
2022/09/30 00:02:17;;;;;;;;;22.00;19.00;;;;;18.47;57.83;97647.53;4942717;28;102579;-68
2022/09/30 00:04:44;;;;;;;;;22.00;20.50;;;;;18.43;58.01;97641.78;4923057;28;103865;-68
2022/09/30 00:07:11;;;;;;;;;19.25;18.00;;;;;18.43;58.18;97641.78;4941353;28;104065;-68
2022/09/30 00:09:38;;;;;;;;;18.50;15.75;;;;;18.42;57.47;97642.88;4937071;28;102361;-70
2022/09/30 00:12:05;;;;;;;;;19.25;16.75;;;;;18.39;58.02;97637.13;4940111;28;102269;-70
2022/09/30 00:14:32;;;;;;;;;21.25;17.25;;;;;18.38;57.63;97633.56;4947825;28;102484;-70
2022/09/30 00:16:59;;;;;;;;;16.50;15.25;;;;;18.37;57.76;97637.41;4930962;28;104040;-70
2022/09/30 00:19:26;;;;;;;;;19.75;18.50;;;;;18.38;57.74;97633.56;4939366;28;105007;-70
2022/09/30 00:21:53;;;;;;;;;21.50;19.50;;;;;18.38;57.38;97621.78;4941339;28;102524;-70
2022/09/30 00:24:20;;;;;;;;;21.00;18.33;;;;;18.38;57.41;97633.56;4943024;28;102120;-70
2022/09/30 00:26:47;;;;;;;;;19.25;18.00;;;;;18.37;58.13;97636.59;4925355;28;104455;-70
2022/09/30 00:29:14;;;;;;;;;22.50;18.50;;;;;18.36;57.35;97644.00;4937666;28;102252;-70
2022/09/30 00:31:41;;;;;;;;;18.75;17.00;;;;;18.36;57.77;97646.72;4928220;28;103607;-70
2022/09/30 00:34:10;;;;;;;;;16.00;15.25;;;;;18.35;57.95;97647.81;4939163;28;103848;-69
2022/09/30 00:36:50;;;;;;;;;20.00;17.33;;;;;18.33;57.78;97650.00;4939999;28;104133;-69
2022/09/30 00:39:21;;;;;;;;;18.75;17.75;;;;;18.33;57.70;97636.31;4936609;28;102538;-70
2022/09/30 00:41:51;;;;;;;;;21.00;17.00;;;;;18.31;57.83;97641.25;4941093;28;102347;-70
2022/09/30 00:44:50;;;;;;;;;22.00;19.25;;;;;18.29;58.26;97646.97;4939805;28;102362;-69
2022/09/30 00:47:30;;;;;;;;;19.00;15.67;;;;;18.29;57.50;97643.41;4937264;28;108892;-70
2022/09/30 00:50:00;;;;;;;;;18.50;16.75;;;;;18.26;57.86;97646.72;4921720;28;102578;-70
2022/09/30 00:52:28;;;;;;;;;18.00;16.50;;;;;18.25;57.82;97645.91;4920759;28;102298;-69
2022/09/30 00:54:57;;;;;;;;;19.00;16.75;;;;;18.24;57.64;97648.91;4933795;28;103681;-69
2022/09/30 00:57:23;;;;;;;;;18.25;14.25;;;;;18.23;57.57;97653.56;4899214;28;104018;-69
2022/09/30 00:59:50;;;;;;;;;14.50;14.00;;;;;18.22;57.44;97657.41;4920271;28;102676;-70
2022/09/30 01:02:17;;;;;;;;;15.33;13.33;;;;;18.22;57.58;97673.00;4912697;28;102270;-70
2022/09/30 01:04:44;;;;;;;;;21.00;16.33;;;;;18.20;57.49;97676.00;4927336;28;102303;-70
2022/09/30 01:07:12;;;;;;;;;20.33;18.00;;;;;18.22;57.35;97675.72;4912745;28;107269;-70
2022/09/30 01:09:47;;;;;;;;;19.67;16.00;;;;;18.21;57.17;97658.47;4921894;28;102672;-70
2022/09/30 01:12:28;;;;;;;;;18.25;14.25;;;;;18.21;57.17;97661.22;4932559;28;102984;-70
2022/09/30 01:15:13;;;;;;;;;17.00;16.00;;;;;18.21;57.58;97649.44;4930914;28;102475;-70
2022/09/30 01:18:13;;;;;;;;;16.25;15.25;;;;;18.21;57.50;97661.22;4928805;28;107884;-70
2022/09/30 01:21:14;;;;;;;;;14.00;12.00;;;;;18.21;57.91;97660.41;4921152;28;102501;-70
2022/09/30 01:24:20;;;;;;;;;17.67;16.00;;;;;18.20;58.14;97653.28;4937229;28;102546;-70
2022/09/30 01:27:03;;;;;;;;;14.67;12.33;;;;;18.19;57.66;97654.38;4935885;28;102449;-70
2022/09/30 01:29:30;;;;;;;;;16.33;14.00;;;;;18.17;57.70;97651.09;4905051;28;103994;-69
2022/09/30 01:32:25;;;;;;;;;15.67;14.33;;;;;18.15;57.40;97656.00;4930448;28;103873;-70
2022/09/30 01:35:03;;;;;;;;;15.33;15.00;;;;;18.14;58.00;97666.16;4901820;28;105693;-70
2022/09/30 01:37:57;;;;;;;;;20.67;17.33;;;;;18.12;58.05;97651.91;4921424;28;103038;-70
2022/09/30 01:40:32;;;;;;;;;14.67;14.33;;;;;18.12;57.70;97662.03;4897171;28;108526;-67
2022/09/30 01:43:05;;;;;;;;;15.00;14.00;;;;;18.11;58.14;97665.84;4926794;28;102164;-70
2022/09/30 01:45:33;;;;;;;;;17.50;16.25;;;;;18.09;57.89;97670.78;4930815;28;102272;-70
2022/09/30 01:48:20;;;;;;;;;14.00;13.67;;;;;18.08;57.66;97682.81;4936176;28;102249;-70
2022/09/30 01:51:23;;;;;;;;;17.00;15.00;;;;;18.10;57.49;97672.44;4909838;28;108798;-70
2022/09/30 01:53:56;;;;;;;;;14.33;13.33;;;;;18.08;58.07;97677.34;4913851;28;102777;-70
2022/09/30 01:56:29;;;;;;;;;15.67;14.00;;;;;18.08;57.30;97675.44;4930178;28;104117;-70
2022/09/30 01:59:08;;;;;;;;;16.00;15.00;;;;;18.11;57.42;97685.00;4933853;28;102776;-70
2022/09/30 02:01:43;;;;;;;;;17.67;15.67;;;;;18.10;57.04;97680.66;4935311;28;108876;-70
2022/09/30 02:04:29;;;;;;;;;16.00;15.00;;;;;18.09;57.26;97668.06;4927752;28;102345;-70
2022/09/30 02:06:59;;;;;;;;;14.00;13.00;;;;;18.09;58.00;97673.53;4915356;28;102778;-70
2022/09/30 02:09:28;;;;;;;;;16.00;14.00;;;;;18.08;58.00;97672.69;4935449;28;102656;-70
2022/09/30 02:11:55;;;;;;;;;14.00;13.00;;;;;18.09;57.56;97673.53;4913873;28;104070;-70
2022/09/30 02:15:04;;;;;;;;;16.33;14.00;;;;;18.07;57.97;97675.69;4917251;28;102419;-70
2022/09/30 02:18:07;;;;;;;;;15.00;13.33;;;;;18.07;57.72;97672.97;4876521;28;102541;-70
2022/09/30 02:20:37;;;;;;;;;14.33;12.67;;;;;18.04;57.63;97670.78;4929482;28;102173;-70
2022/09/30 02:23:25;;;;;;;;;19.00;15.33;;;;;18.04;57.78;97671.59;4924404;28;109357;-70
2022/09/30 02:26:10;;;;;;;;;14.00;13.00;;;;;18.02;57.98;97672.94;4915709;28;102242;-70
2022/09/30 02:28:41;;;;;;;;;15.50;14.00;;;;;18.02;57.47;97675.69;4920491;28;102300;-70
2022/09/30 02:31:09;;;;;;;;;14.00;12.67;;;;;18.01;57.91;97671.34;4925549;28;102893;-70
2022/09/30 02:34:12;;;;;;;;;16.00;14.00;;;;;17.99;57.38;97662.56;4919865;28;110297;-70
2022/09/30 02:37:01;;;;;;;;;16.50;14.50;;;;;17.99;57.79;97674.31;4876438;28;104099;-69
2022/09/30 02:39:46;;;;;;;;;17.00;14.33;;;;;17.99;57.27;97668.84;4935782;28;102572;-70
2022/09/30 02:42:28;;;;;;;;;15.67;12.00;;;;;17.98;57.42;97672.69;4937549;28;102544;-70
2022/09/30 02:44:59;;;;;;;;;11.67;11.67;;;;;18.00;57.22;97669.69;4913776;28;104007;-70
2022/09/30 02:47:47;;;;;;;;;14.67;14.00;;;;;17.99;57.09;97679.81;4939025;28;102499;-70
2022/09/30 02:50:23;;;;;;;;;19.00;15.00;;;;;18.00;57.63;97686.09;4935650;28;104700;-70
2022/09/30 02:53:06;;;;;;;;;13.67;13.00;;;;;18.00;57.38;97691.56;4939540;28;103123;-70
2022/09/30 02:55:38;;;;;;;;;17.75;14.75;;;;;17.99;57.67;97688.00;4934044;28;104810;-70
2022/09/30 02:58:13;;;;;;;;;13.67;12.33;;;;;18.00;57.99;97686.09;4919065;28;102533;-70
2022/09/30 03:00:40;;;;;;;;;18.67;16.33;;;;;17.99;57.21;97684.44;4918957;28;102390;-70
2022/09/30 03:03:34;;;;;;;;;16.00;13.67;;;;;17.97;58.05;97683.88;4927857;28;102717;-69
2022/09/30 03:06:01;;;;;;;;;17.00;14.00;;;;;17.95;57.65;97686.09;4932135;28;108858;-70
2022/09/30 03:08:28;;;;;;;;;13.67;13.33;;;;;17.95;57.49;97688.81;4932827;28;102468;-70
2022/09/30 03:10:55;;;;;;;;;15.67;14.00;;;;;17.95;57.34;97686.09;4940603;28;102325;-70
2022/09/30 03:14:01;;;;;;;;;13.33;13.33;;;;;17.93;57.84;97691.81;4928907;28;102503;-70
2022/09/30 03:16:43;;;;;;;;;13.00;12.00;;;;;17.93;57.26;97691.00;4901618;28;109729;-70
2022/09/30 03:19:27;;;;;;;;;16.00;13.67;;;;;17.93;57.61;97685.50;4930480;28;105285;-68
2022/09/30 03:21:57;;;;;;;;;16.33;13.00;;;;;17.92;57.34;97686.63;4943139;28;104021;-70
2022/09/30 03:24:46;;;;;;;;;12.33;12.00;;;;;17.91;57.49;97685.81;4919330;28;102603;-70
2022/09/30 03:27:26;;;;;;;;;11.67;10.67;;;;;17.92;57.51;97686.63;4916936;28;109059;-70
2022/09/30 03:30:04;;;;;;;;;16.00;13.00;;;;;17.91;57.83;97683.06;4920982;28;103149;-70
2022/09/30 03:32:55;;;;;;;;;17.67;14.00;;;;;17.92;57.41;97690.16;4918176;28;102370;-70
2022/09/30 03:35:37;;;;;;;;;16.00;13.33;;;;;17.92;57.26;97687.44;4931412;28;102647;-70
2022/09/30 03:38:26;;;;;;;;;13.33;12.00;;;;;17.92;57.30;97690.16;4912874;28;104198;-70
2022/09/30 03:41:25;;;;;;;;;14.67;13.67;;;;;17.92;56.89;97694.84;4930781;28;102889;-70
2022/09/30 03:43:58;;;;;;;;;12.00;11.00;;;;;17.93;57.36;97696.47;4916853;28;102531;-70
2022/09/30 03:46:50;;;;;;;;;12.00;12.00;;;;;17.90;57.42;97697.84;4929425;28;102563;-70
2022/09/30 03:49:30;;;;;;;;;10.67;10.33;;;;;17.90;57.67;97711.50;4930034;28;108901;-70
2022/09/30 03:51:57;;;;;;;;;10.33;9.67;;;;;17.90;57.37;97710.69;4909474;28;102382;-70
2022/09/30 03:54:24;;;;;;;;;13.67;12.33;;;;;17.89;57.86;97715.31;4940477;28;102030;-70
2022/09/30 03:56:51;;;;;;;;;13.33;11.67;;;;;17.89;57.89;97717.25;4941835;28;102554;-70
2022/09/30 03:59:22;;;;;;;;;14.00;11.67;;;;;17.87;57.21;97717.53;4942782;28;104197;-70
2022/09/30 04:01:49;;;;;;;;;13.00;11.50;;;;;17.87;57.33;97719.44;4934493;28;102383;-70
2022/09/30 04:04:16;;;;;;;;;14.75;12.00;;;;;17.87;58.12;97724.91;4934334;28;104545;-69
2022/09/30 04:06:43;;;;;;;;;13.00;13.00;;;;;17.85;57.71;97725.16;4939304;28;102492;-69
2022/09/30 04:09:10;;;;;;;;;13.00;12.00;;;;;17.86;57.88;97731.47;4947812;28;104060;-69
2022/09/30 04:11:37;;;;;;;;;13.67;12.00;;;;;17.85;57.69;97727.91;4928617;28;102290;-69
2022/09/30 04:14:04;;;;;;;;;12.67;10.67;;;;;17.84;57.30;97727.06;4933995;28;102804;-69
2022/09/30 04:16:32;;;;;;;;;13.33;11.33;;;;;17.85;57.31;97733.38;4941307;28;104068;-69
2022/09/30 04:18:59;;;;;;;;;13.00;10.67;;;;;17.85;57.21;97733.38;4934582;28;104390;-69
2022/09/30 04:21:29;;;;;;;;;11.67;11.67;;;;;17.85;57.42;97733.38;4905887;28;102453;-69
2022/09/30 04:23:56;;;;;;;;;13.00;11.00;;;;;17.84;57.08;97729.81;4944061;28;102386;-69
2022/09/30 04:26:22;;;;;;;;;12.67;11.33;;;;;17.86;57.41;97734.19;4939867;28;102279;-69
2022/09/30 04:28:51;;;;;;;;;12.00;9.67;;;;;17.86;56.71;97731.47;4934393;28;104470;-69
2022/09/30 04:31:20;;;;;;;;;11.33;10.33;;;;;17.86;57.04;97728.72;4918951;28;103354;-69
2022/09/30 04:33:47;;;;;;;;;15.00;13.00;;;;;17.84;57.47;97724.34;4944162;28;106656;-69
2022/09/30 04:36:14;;;;;;;;;14.00;13.00;;;;;17.84;57.12;97731.72;4937750;28;102996;-68
2022/09/30 04:38:41;;;;;;;;;13.67;11.00;;;;;17.82;57.68;97729.28;4945933;28;104163;-69
2022/09/30 04:41:10;;;;;;;;;14.00;10.00;;;;;17.83;57.69;97735.56;4947772;28;102420;-69
2022/09/30 04:43:37;;;;;;;;;11.00;8.67;;;;;17.81;57.21;97727.63;4928888;28;105320;-69
2022/09/30 04:46:05;;;;;;;;;11.67;10.33;;;;;17.81;57.64;97727.63;4944760;28;102376;-69
2022/09/30 04:48:32;;;;;;;;;9.33;9.00;;;;;17.80;57.74;97728.69;4941187;28;104040;-69
2022/09/30 04:50:59;;;;;;;;;10.33;10.33;;;;;17.80;57.98;97725.16;4951758;28;102446;-69
2022/09/30 04:53:27;;;;;;;;;12.00;11.33;;;;;17.80;57.57;97731.44;4944012;28;102466;-68
2022/09/30 04:56:00;;;;;;;;;13.00;12.00;;;;;17.79;57.16;97729.78;4942966;28;102237;-69
2022/09/30 04:58:27;;;;;;;;;12.33;11.33;;;;;17.77;58.04;97731.97;4947404;28;104234;-69
2022/09/30 05:01:09;;;;;;;;;12.33;12.00;;;;;17.77;57.52;97734.72;4949276;28;102587;-69
2022/09/30 05:03:36;;;;;;;;;11.33;10.67;;;;;17.77;57.84;97739.38;4944666;28;102233;-69
2022/09/30 05:06:04;;;;;;;;;11.00;10.67;;;;;17.77;57.17;97739.38;4940407;28;102495;-69
2022/09/30 05:08:32;;;;;;;;;14.00;11.67;;;;;17.78;57.26;97744.56;4933669;28;104188;-69
2022/09/30 05:11:01;;;;;;;;;10.33;8.00;;;;;17.77;57.68;97737.47;4937776;28;102236;-69
2022/09/30 05:13:33;;;;;;;;;9.00;9.00;;;;;17.78;57.64;97743.75;4944026;28;102372;-68
2022/09/30 05:16:00;;;;;;;;;10.33;10.33;;;;;17.80;56.89;97747.84;4951579;28;102481;-69
2022/09/30 05:18:28;;;;;;;;;11.00;11.00;;;;;17.78;57.69;97747.31;4941827;28;104140;-69
2022/09/30 05:20:58;;;;;;;;;11.00;10.00;;;;;17.78;57.74;97733.63;4952742;28;102509;-69
2022/09/30 05:23:26;;;;;;;;;11.67;10.33;;;;;17.78;57.36;97744.56;4942601;28;102177;-69
2022/09/30 05:25:53;;;;;;;;;10.67;10.00;;;;;17.78;57.10;97743.75;4934399;28;102875;-69
2022/09/30 05:28:20;;;;;;;;;10.00;9.00;;;;;17.76;57.66;97749.47;4920682;28;104112;-69
2022/09/30 05:30:49;;;;;;;;;12.33;11.33;;;;;17.76;57.89;97741.28;4913051;28;102462;-68
2022/09/30 05:33:16;;;;;;;;;12.67;11.67;;;;;17.74;57.59;97748.91;4945255;28;102450;-68
2022/09/30 05:35:43;;;;;;;;;11.00;10.33;;;;;17.75;57.80;97749.72;4950408;28;102457;-69
2022/09/30 05:38:10;;;;;;;;;10.00;10.00;;;;;17.74;57.18;97743.44;4934223;28;109588;-69
2022/09/30 05:40:40;;;;;;;;;12.00;10.50;;;;;17.74;57.20;97746.16;4944625;28;102469;-69
2022/09/30 05:43:07;;;;;;;;;9.67;9.33;;;;;17.74;57.67;97750.84;4946433;28;102100;-69
2022/09/30 05:45:34;;;;;;;;;11.00;10.00;;;;;17.73;57.93;97747.28;4939684;28;102195;-69
2022/09/30 05:48:01;;;;;;;;;10.33;10.00;;;;;17.73;57.05;97757.41;4937868;28;104209;-69
2022/09/30 05:50:28;;;;;;;;;10.00;10.00;;;;;17.72;57.44;97751.09;4943463;28;102777;-69
2022/09/30 05:52:56;;;;;;;;;9.67;9.00;;;;;17.73;56.85;97752.75;4935098;28;102330;-69
2022/09/30 05:55:23;;;;;;;;;10.33;10.00;;;;;17.73;57.03;97747.28;4936255;28;103091;-69
2022/09/30 05:57:50;;;;;;;;;10.00;9.00;;;;;17.73;57.32;97755.50;4929486;28;106086;-69
2022/09/30 06:00:17;;;;;;;;;11.00;9.67;;;;;17.73;57.17;97758.22;4937656;28;102283;-68
2022/09/30 06:02:44;;;;;;;;;9.00;8.67;;;;;17.74;57.17;97759.84;4920829;28;102592;-69
2022/09/30 06:05:11;;;;;;;;;10.00;10.00;;;;;17.73;57.37;97758.22;4937081;28;102639;-69
2022/09/30 06:07:38;;;;;;;;;11.00;10.00;;;;;17.74;57.41;97762.59;4934855;28;104228;-69
2022/09/30 06:10:06;;;;;;;;;11.33;10.67;;;;;17.74;57.02;97759.84;4935259;28;102758;-69
2022/09/30 06:12:35;;;;;;;;;12.67;11.00;;;;;17.74;57.36;97762.59;4945036;28;102327;-69
2022/09/30 06:15:02;;;;;;;;;10.00;10.00;;;;;17.73;57.46;97771.91;4950669;28;102957;-69
2022/09/30 06:17:29;;;;;;;;;10.00;9.67;;;;;17.73;57.46;97762.88;4904456;28;104194;-69
2022/09/30 06:19:56;;;;;;;;;11.00;9.33;;;;;17.71;57.70;97765.84;4936357;28;102495;-69
2022/09/30 06:22:22;;;;;;;;;7.33;6.67;;;;;17.72;57.20;97761.22;4944071;28;102309;-69
2022/09/30 06:24:50;;;;;;;;;10.00;8.67;;;;;17.71;57.07;97768.59;4946011;28;102548;-69
2022/09/30 06:27:20;;;;;;;;;9.00;8.00;;;;;17.71;57.28;97768.59;4949142;28;104223;-69
2022/09/30 06:29:48;;;;;;;;;9.33;8.00;;;;;17.72;57.01;97769.41;4946041;28;102201;-68
2022/09/30 06:32:16;;;;;;;;;10.67;9.00;;;;;17.72;57.41;97772.16;4941145;28;102252;-69
2022/09/30 06:34:43;;;;;;;;;9.33;9.00;;;;;17.70;57.18;97777.06;4936545;28;102396;-69
2022/09/30 06:37:12;;;;;;;;;7.00;6.33;;;;;17.70;57.26;97782.53;4934793;28;106688;-69
2022/09/30 06:39:40;;;;;;;;;9.67;9.33;;;;;17.69;57.53;97784.47;4944006;28;102479;-69
2022/09/30 06:42:07;;;;;;;;;11.33;10.33;;;;;17.70;57.20;97791.53;4934706;28;102441;-69
2022/09/30 06:44:34;;;;;;;;;10.67;10.67;;;;;17.70;57.38;97791.53;4938099;28;102429;-69
2022/09/30 06:47:17;;;;;;;;;10.00;7.00;;;;;17.71;57.20;97795.94;4929006;28;109128;-68
2022/09/30 06:49:52;;;;;;;;;9.33;7.33;;;;;17.73;56.85;97795.69;4946276;28;102234;-69
2022/09/30 06:52:19;;;;;;;;;8.67;8.67;;;;;17.73;56.71;97792.94;4927770;28;102400;-69
2022/09/30 06:54:46;;;;;;;;;11.00;9.33;;;;;17.73;57.21;97793.78;4951364;28;104234;-67
2022/09/30 06:57:13;;;;;;;;;13.33;7.67;;;;;17.74;56.98;97794.59;4946075;28;104031;-69
2022/09/30 06:59:40;;;;;;;;;12.00;9.00;;;;;17.75;56.96;97793.47;4939787;28;102962;-69
2022/09/30 07:02:08;;;;;;;;;9.33;8.00;;;;;17.74;56.78;97806.34;4932281;28;102231;-69
2022/09/30 07:04:36;;;;;;;;;9.00;8.00;;;;;17.74;57.09;97809.06;4919479;28;104870;-69
2022/09/30 07:07:03;;;;;;;;;8.00;8.00;;;;;17.74;57.63;97805.53;4937358;28;104218;-69
2022/09/30 07:09:30;;;;;;;;;8.33;8.33;;;;;17.73;56.87;97806.63;4937595;28;102891;-69
2022/09/30 07:11:57;;;;;;;;;8.33;8.33;;;;;17.73;57.09;97807.44;4941939;28;102181;-69
2022/09/30 07:14:24;;;;;;;;;11.00;9.67;;;;;17.72;57.70;97805.78;4935689;28;102393;-72
2022/09/30 07:16:52;;;;;;;;;10.00;8.33;;;;;17.73;57.63;97807.44;4934515;28;103994;-74
2022/09/30 07:19:22;;;;;;;;;10.00;8.67;;;;;17.74;57.87;97803.59;4941982;28;102592;-73
2022/09/30 07:21:49;;;;;;;;;10.00;8.00;;;;;17.75;57.81;97810.72;4936436;28;102591;-74
2022/09/30 07:24:16;;;;;;;;;7.00;5.00;;;;;17.78;57.56;97812.94;4937459;28;102613;-73
2022/09/30 07:26:44;;;;;;;;;7.67;7.67;;;;;17.80;57.90;97816.22;4920569;28;104568;-74
2022/09/30 07:29:12;;;;;;;;;9.33;8.33;;;;;17.81;57.30;97817.03;4947005;28;102850;-74
2022/09/30 07:31:39;;;;;;;;;11.00;9.00;;;;;17.80;57.89;97818.94;4940048;28;102473;-73
2022/09/30 07:34:07;;;;;;;;;9.33;8.67;;;;;17.80;57.50;97813.47;4948374;28;102184;-74
2022/09/30 07:36:36;;;;;;;;;11.00;8.00;;;;;17.81;57.30;97825.25;4923703;28;104219;-74
2022/09/30 07:39:04;;;;;;;;;9.33;9.00;;;;;17.80;57.19;97818.94;4946198;28;104331;-74
2022/09/30 07:41:34;;;;;;;;;9.00;8.67;;;;;17.80;57.83;97816.22;4949612;28;102531;-74
2022/09/30 07:44:01;;;;;;;;;8.33;7.33;;;;;17.82;56.94;97816.78;4948431;28;102678;-74
2022/09/30 07:46:29;;;;;;;;;8.00;7.00;;;;;17.83;56.97;97821.13;4935429;28;103808;-73
2022/09/30 07:48:59;;;;;;;;;8.67;8.00;;;;;17.84;57.70;97831.00;4938512;28;102651;-74
2022/09/30 07:51:37;;;;;;;;;9.33;8.33;;;;;17.85;56.98;97829.09;4940422;28;102371;-74
2022/09/30 07:54:06;;;;;;;;;7.33;7.00;;;;;17.85;57.30;97820.88;4935478;28;102188;-74
2022/09/30 07:56:35;;;;;;;;;9.00;8.00;;;;;17.86;57.79;97832.66;4937468;28;104012;-73
2022/09/30 07:59:22;;;;;;;;;9.00;8.00;;;;;17.84;57.80;97836.47;4934547;28;102489;-73
2022/09/30 08:01:49;;;;;;;;;8.00;8.00;;;;;17.86;57.56;97828.00;4937566;28;102312;-73
2022/09/30 08:04:17;;;;;;;;;8.67;8.00;;;;;17.84;57.66;97828.25;4938471;28;102368;-72
2022/09/30 08:06:46;;;;;;;;;8.00;7.67;;;;;17.86;57.11;97824.44;4938810;28;104047;-73
2022/09/30 08:09:14;;;;;;;;;8.00;7.67;;;;;17.86;57.88;97832.66;4921996;28;102203;-73
2022/09/30 08:11:41;;;;;;;;;7.67;6.33;;;;;17.85;57.61;97831.81;4945160;28;102560;-73
2022/09/30 08:14:15;;;;;;;;;9.67;9.00;;;;;17.84;57.30;97838.38;4948105;28;102313;-73
2022/09/30 08:16:42;;;;;;;;;7.00;6.33;;;;;17.84;57.44;97835.63;4934673;28;110950;-73
2022/09/30 08:19:15;;;;;;;;;8.33;8.33;;;;;17.84;57.46;97847.41;4931897;28;102181;-73
2022/09/30 08:21:43;;;;;;;;;7.00;7.00;;;;;17.83;57.86;97845.75;4939534;28;102190;-73
2022/09/30 08:24:10;;;;;;;;;7.00;6.67;;;;;17.85;57.65;97845.50;4938101;28;103390;-73
2022/09/30 08:26:37;;;;;;;;;9.00;7.00;;;;;17.84;58.67;97844.66;4937302;28;102892;-72
2022/09/30 08:29:04;;;;;;;;;7.00;6.00;;;;;17.84;58.15;97847.41;4921608;28;102564;-72
2022/09/30 08:31:34;;;;;;;;;8.33;8.33;;;;;17.86;58.62;97854.53;4943352;28;102516;-73
2022/09/30 08:34:02;;;;;;;;;8.67;8.67;;;;;17.84;58.82;97858.34;4943745;28;103248;-73
2022/09/30 08:36:29;;;;;;;;;7.00;7.00;;;;;17.85;57.87;97848.22;4922433;28;104298;-73
2022/09/30 08:38:56;;;;;;;;;10.00;9.00;;;;;17.84;59.16;97858.34;4937762;28;107300;-73
2022/09/30 08:41:38;;;;;;;;;8.00;8.00;;;;;17.84;58.34;97852.88;4940446;28;102482;-73
2022/09/30 08:44:19;;;;;;;;;8.00;7.00;;;;;17.84;58.05;97861.09;4942726;28;102251;-73
2022/09/30 08:47:11;;;;;;;;;7.00;7.00;;;;;17.84;58.78;97849.31;4931357;28;108906;-74
2022/09/30 08:49:57;;;;;;;;;9.00;8.00;;;;;17.83;59.00;97856.69;4946101;28;102483;-70
2022/09/30 08:52:30;;;;;;;;;7.33;7.33;;;;;17.82;58.53;97855.06;4941067;28;102319;-61
2022/09/30 08:55:33;;;;;;;;;8.00;7.33;;;;;17.82;58.98;97859.72;4927388;28;102203;-73
2022/09/30 08:58:00;;;;;;;;;7.00;7.00;;;;;17.79;59.13;97860.22;4909540;28;108802;-74
2022/09/30 09:00:27;;;;;;;;;8.67;6.67;;;;;17.78;59.53;97853.97;4910090;28;103058;-74
2022/09/30 09:02:56;;;;;;;;;8.67;7.33;;;;;17.75;58.76;97859.94;4937859;28;102210;-67
2022/09/30 09:05:46;;;;;;;;;8.33;7.00;;;;;17.73;58.59;97862.13;4912270;28;102176;-75
2022/09/30 09:08:42;;;;;;;;;8.00;7.00;;;;;17.75;58.81;97854.47;4925030;28;108886;-74
2022/09/30 09:11:29;;;;;;;;;8.00;7.00;;;;;17.78;59.16;97873.09;4937230;28;102180;-71
2022/09/30 09:14:04;;;;;;;;;7.33;7.00;;;;;17.80;58.65;97865.44;4908817;28;102227;-71
2022/09/30 09:16:34;;;;;;;;;8.00;7.00;;;;;17.81;59.22;97867.09;4947447;28;102549;-71
2022/09/30 09:19:09;;;;;;;;;8.00;7.67;;;;;17.81;59.06;97864.34;4932499;28;104262;-71
2022/09/30 09:21:50;;;;;;;;;9.00;8.67;;;;;17.82;58.91;97871.47;4933864;28;102511;-71
2022/09/30 09:24:19;;;;;;;;;8.00;7.00;;;;;17.82;58.81;97866.00;4936069;28;102070;-70
2022/09/30 09:26:46;;;;;;;;;7.33;7.33;;;;;17.83;59.30;97875.84;4937985;28;104999;-68
2022/09/30 09:29:37;;;;;;;;;8.67;8.00;;;;;17.83;59.44;97870.38;4905299;28;108757;-71
2022/09/30 09:32:16;;;;;;;;;7.67;7.67;;;;;17.84;58.90;97874.75;4934392;28;103656;-71
2022/09/30 09:34:44;;;;;;;;;7.00;7.00;;;;;17.83;59.64;97875.03;4937527;28;102958;-71
2022/09/30 09:37:17;;;;;;;;;8.00;8.00;;;;;17.82;58.99;97868.75;4937930;28;102334;-71
2022/09/30 09:39:48;;;;;;;;;6.67;6.67;;;;;17.82;58.92;97871.47;4939912;28;109031;-71
2022/09/30 09:42:42;;;;;;;;;8.00;6.00;;;;;17.81;59.32;97869.81;4936069;28;102336;-71
2022/09/30 09:45:44;;;;;;;;;8.33;7.00;;;;;17.81;59.33;97877.19;4932221;28;102426;-70
2022/09/30 09:48:14;;;;;;;;;8.00;8.00;;;;;17.80;59.97;97884.59;4889492;28;102991;-70
2022/09/30 09:51:05;;;;;;;;;6.00;6.00;;;;;17.80;59.70;97886.50;4933158;28;104110;-67
2022/09/30 09:53:46;;;;;;;;;7.00;7.00;;;;;17.79;59.73;97888.41;4917766;28;102291;-69
2022/09/30 09:56:18;;;;;;;;;7.33;6.67;;;;;17.79;60.16;97888.41;4931960;28;102092;-72
2022/09/30 09:59:12;;;;;;;;;9.00;8.00;;;;;17.78;60.47;97894.97;4950983;28;102342;-73
2022/09/30 10:01:44;;;;;;;;;11.00;6.67;;;;;17.79;60.29;97895.78;4953207;28;108795;-73
2022/09/30 10:04:26;;;;;;;;;6.33;6.00;;;;;17.79;60.23;97887.56;4946434;28;103052;-72
2022/09/30 10:07:00;;;;;;;;;8.00;7.67;;;;;17.77;60.02;97896.06;4934904;28;101977;-72
2022/09/30 10:09:37;;;;;;;;;8.00;7.67;;;;;17.77;60.45;97892.50;4937975;28;102246;-72
2022/09/30 10:12:04;;;;;;;;;6.33;6.33;;;;;17.77;60.32;97893.31;4923296;28;104071;-72
2022/09/30 10:14:34;;;;;;;;;7.67;7.00;;;;;17.78;60.33;97896.88;4933367;28;102591;-70
2022/09/30 10:17:02;;;;;;;;;9.00;7.00;;;;;17.78;60.16;97892.25;4936459;28;102168;-70
2022/09/30 10:19:30;;;;;;;;;7.00;6.00;;;;;17.77;60.13;97893.31;4936541;28;102698;-71
2022/09/30 10:22:10;;;;;;;;;8.00;6.33;;;;;17.78;60.42;97897.72;4900805;28;104036;-70
2022/09/30 10:24:38;;;;;;;;;6.00;6.00;;;;;17.78;59.89;97902.34;4934854;28;102107;-70
2022/09/30 10:27:30;;;;;;;;;7.67;7.00;;;;;17.76;60.32;97899.88;4940649;28;102380;-70
2022/09/30 10:29:57;;;;;;;;;8.33;7.00;;;;;17.75;60.93;97902.88;4935075;28;102492;-72
2022/09/30 10:32:24;;;;;;;;;9.33;7.67;;;;;17.74;60.95;97903.97;4932138;28;105088;-72
2022/09/30 10:34:59;;;;;;;;;7.33;7.33;;;;;17.73;61.06;97894.13;4913155;28;104736;-69
2022/09/30 10:37:26;;;;;;;;;8.00;8.00;;;;;17.73;60.49;97914.09;4903787;28;102517;-74
2022/09/30 10:40:00;;;;;;;;;6.00;5.00;;;;;17.72;61.47;97908.88;4926353;28;103170;-73
2022/09/30 10:42:28;;;;;;;;;7.00;7.00;;;;;17.71;60.47;97915.41;4924223;28;104177;-70
2022/09/30 10:45:01;;;;;;;;;7.00;7.00;;;;;17.71;61.29;97915.41;4938503;28;102533;-71
2022/09/30 10:47:28;;;;;;;;;7.33;6.00;;;;;17.71;61.27;97918.16;4919256;28;102266;-71
2022/09/30 10:50:10;;;;;;;;;6.00;5.33;;;;;17.71;61.32;97924.44;4937133;28;102532;-71
2022/09/30 10:52:43;;;;;;;;;8.33;7.00;;;;;17.72;61.21;97919.81;4925684;28;104224;-71
2022/09/30 10:55:19;;;;;;;;;7.33;5.00;;;;;17.71;60.47;97918.97;4901878;28;102441;-71
2022/09/30 10:57:46;;;;;;;;;6.00;5.67;;;;;17.71;60.69;97927.19;4942819;28;102378;-69
2022/09/30 11:00:17;;;;;;;;;6.33;6.00;;;;;17.72;61.20;97930.75;4937161;28;102618;-69
2022/09/30 11:03:04;;;;;;;;;5.00;4.00;;;;;17.71;60.91;97920.88;4918539;28;104108;-69
2022/09/30 11:05:42;;;;;;;;;6.33;6.00;;;;;17.71;60.91;97932.66;4939773;28;102724;-69
2022/09/30 11:08:43;;;;;;;;;6.00;6.00;;;;;17.71;60.99;97935.38;4896204;28;102340;-69
2022/09/30 11:11:26;;;;;;;;;8.00;7.00;;;;;17.71;60.91;97934.56;4932020;28;102167;-69
2022/09/30 11:14:00;;;;;;;;;8.00;7.00;;;;;17.71;60.72;97935.38;4931186;28;108855;-68
2022/09/30 11:16:40;;;;;;;;;7.00;6.67;;;;;17.71;61.41;97932.66;4918855;28;102519;-68
2022/09/30 11:19:27;;;;;;;;;6.33;6.33;;;;;17.70;61.58;97939.19;4917066;28;102233;-69
2022/09/30 11:22:30;;;;;;;;;6.00;6.00;;;;;17.69;61.09;97943.03;4936665;28;102647;-69
2022/09/30 11:24:57;;;;;;;;;6.00;6.00;;;;;17.70;61.71;97941.09;4920191;28;108984;-69
2022/09/30 11:27:39;;;;;;;;;4.00;4.00;;;;;17.70;61.12;97941.94;4933488;28;102965;-68
2022/09/30 11:30:29;;;;;;;;;6.00;5.00;;;;;17.69;61.56;97951.25;4935230;28;102453;-69
2022/09/30 11:33:12;;;;;;;;;6.00;5.00;;;;;17.69;61.33;97948.50;4932500;28;102664;-69
2022/09/30 11:36:08;;;;;;;;;5.67;5.33;;;;;17.69;61.20;97956.72;4929742;28;104046;-69
2022/09/30 11:38:49;;;;;;;;;7.33;6.00;;;;;17.70;61.12;97952.03;4926926;28;102467;-69
2022/09/30 11:41:21;;;;;;;;;6.67;6.00;;;;;17.70;60.69;97957.50;4938466;28;102364;-69
2022/09/30 11:44:04;;;;;;;;;6.67;6.00;;;;;17.70;61.42;97958.34;4924669;28;102353;-69
2022/09/30 11:46:52;;;;;;;;;7.00;6.00;;;;;17.70;61.08;97954.78;4932131;28;109458;-68
2022/09/30 11:49:31;;;;;;;;;7.67;7.00;;;;;17.70;61.56;97955.59;4916870;28;102581;-69